sensor_id;sensor_type;location;lat;lon;timestamp;P1;durP1;ratioP1;P2;durP2;ratioP2
6019;SDS011;3038;51.122;6.840;2023-03-04T00:02:14;33.50;;;21.10;;
6019;SDS011;3038;51.122;6.840;2023-03-04T00:04:39;31.40;;;19.53;;
6019;SDS011;3038;51.122;6.840;2023-03-04T00:07:05;31.33;;;20.43;;
6019;SDS011;3038;51.122;6.840;2023-03-04T00:09:30;30.70;;;19.83;;
6019;SDS011;3038;51.122;6.840;2023-03-04T00:11:55;28.87;;;20.20;;
6019;SDS011;3038;51.122;6.840;2023-03-04T00:14:21;38.07;;;21.80;;
6019;SDS011;3038;51.122;6.840;2023-03-04T00:16:46;34.53;;;19.47;;
6019;SDS011;3038;51.122;6.840;2023-03-04T00:19:13;24.73;;;18.30;;
6019;SDS011;3038;51.122;6.840;2023-03-04T00:21:38;30.83;;;18.83;;
6019;SDS011;3038;51.122;6.840;2023-03-04T00:24:04;23.63;;;16.63;;
6019;SDS011;3038;51.122;6.840;2023-03-04T00:26:30;27.63;;;18.87;;
6019;SDS011;3038;51.122;6.840;2023-03-04T00:28:56;27.27;;;18.10;;
6019;SDS011;3038;51.122;6.840;2023-03-04T00:31:21;25.30;;;18.30;;
6019;SDS011;3038;51.122;6.840;2023-03-04T00:33:46;21.73;;;16.00;;
6019;SDS011;3038;51.122;6.840;2023-03-04T00:36:12;27.10;;;15.57;;
6019;SDS011;3038;51.122;6.840;2023-03-04T00:38:37;23.93;;;16.30;;
6019;SDS011;3038;51.122;6.840;2023-03-04T00:41:03;25.47;;;17.50;;
6019;SDS011;3038;51.122;6.840;2023-03-04T00:43:28;27.77;;;17.77;;
6019;SDS011;3038;51.122;6.840;2023-03-04T00:45:54;23.63;;;15.03;;
6019;SDS011;3038;51.122;6.840;2023-03-04T00:48:19;25.27;;;16.90;;
6019;SDS011;3038;51.122;6.840;2023-03-04T00:50:45;22.40;;;15.23;;
6019;SDS011;3038;51.122;6.840;2023-03-04T00:53:10;21.00;;;14.83;;
6019;SDS011;3038;51.122;6.840;2023-03-04T00:55:36;21.63;;;14.13;;
6019;SDS011;3038;51.122;6.840;2023-03-04T00:58:01;19.33;;;13.50;;
6019;SDS011;3038;51.122;6.840;2023-03-04T01:00:27;22.50;;;13.93;;
6019;SDS011;3038;51.122;6.840;2023-03-04T01:02:52;22.57;;;13.60;;
6019;SDS011;3038;51.122;6.840;2023-03-04T01:05:18;21.37;;;15.50;;
6019;SDS011;3038;51.122;6.840;2023-03-04T01:07:43;21.77;;;13.17;;
6019;SDS011;3038;51.122;6.840;2023-03-04T01:10:09;18.40;;;11.97;;
6019;SDS011;3038;51.122;6.840;2023-03-04T01:12:36;24.63;;;13.60;;
6019;SDS011;3038;51.122;6.840;2023-03-04T01:15:04;18.10;;;12.33;;
6019;SDS011;3038;51.122;6.840;2023-03-04T01:17:30;19.40;;;12.20;;
6019;SDS011;3038;51.122;6.840;2023-03-04T01:19:55;17.00;;;10.93;;
6019;SDS011;3038;51.122;6.840;2023-03-04T01:22:20;17.33;;;11.23;;
6019;SDS011;3038;51.122;6.840;2023-03-04T01:24:46;20.77;;;11.43;;
6019;SDS011;3038;51.122;6.840;2023-03-04T01:27:11;14.10;;;9.90;;
6019;SDS011;3038;51.122;6.840;2023-03-04T01:29:36;18.13;;;10.30;;
6019;SDS011;3038;51.122;6.840;2023-03-04T01:32:02;15.37;;;10.70;;
6019;SDS011;3038;51.122;6.840;2023-03-04T01:34:28;12.80;;;8.27;;
6019;SDS011;3038;51.122;6.840;2023-03-04T01:36:53;15.20;;;9.77;;
6019;SDS011;3038;51.122;6.840;2023-03-04T01:39:19;14.40;;;9.03;;
6019;SDS011;3038;51.122;6.840;2023-03-04T01:41:44;16.80;;;10.43;;
6019;SDS011;3038;51.122;6.840;2023-03-04T01:44:10;17.83;;;8.97;;
6019;SDS011;3038;51.122;6.840;2023-03-04T01:46:36;12.70;;;8.10;;
6019;SDS011;3038;51.122;6.840;2023-03-04T01:49:02;15.63;;;10.20;;
6019;SDS011;3038;51.122;6.840;2023-03-04T01:51:28;17.73;;;8.20;;
6019;SDS011;3038;51.122;6.840;2023-03-04T01:53:53;14.13;;;9.33;;
6019;SDS011;3038;51.122;6.840;2023-03-04T01:56:30;10.87;;;7.17;;
6019;SDS011;3038;51.122;6.840;2023-03-04T01:59:11;17.00;;;9.17;;
6019;SDS011;3038;51.122;6.840;2023-03-04T02:01:37;11.43;;;7.40;;
6019;SDS011;3038;51.122;6.840;2023-03-04T02:04:03;12.10;;;8.20;;
6019;SDS011;3038;51.122;6.840;2023-03-04T02:06:30;15.10;;;7.23;;
6019;SDS011;3038;51.122;6.840;2023-03-04T02:08:56;10.97;;;7.77;;
6019;SDS011;3038;51.122;6.840;2023-03-04T02:11:21;15.57;;;9.13;;
6019;SDS011;3038;51.122;6.840;2023-03-04T02:13:47;13.80;;;7.60;;
6019;SDS011;3038;51.122;6.840;2023-03-04T02:16:12;12.57;;;6.53;;
6019;SDS011;3038;51.122;6.840;2023-03-04T02:18:37;16.87;;;8.17;;
6019;SDS011;3038;51.122;6.840;2023-03-04T02:21:22;15.73;;;8.30;;
6019;SDS011;3038;51.122;6.840;2023-03-04T02:26:39;14.43;;;9.37;;
6019;SDS011;3038;51.122;6.840;2023-03-04T02:29:08;16.00;;;8.37;;
6019;SDS011;3038;51.122;6.840;2023-03-04T02:34:06;17.70;;;8.43;;
6019;SDS011;3038;51.122;6.840;2023-03-04T02:36:38;14.57;;;7.03;;
6019;SDS011;3038;51.122;6.840;2023-03-04T02:39:21;14.23;;;7.60;;
6019;SDS011;3038;51.122;6.840;2023-03-04T02:41:51;17.93;;;7.27;;
6019;SDS011;3038;51.122;6.840;2023-03-04T02:44:27;12.70;;;7.17;;
6019;SDS011;3038;51.122;6.840;2023-03-04T02:46:54;10.07;;;7.40;;
6019;SDS011;3038;51.122;6.840;2023-03-04T02:49:21;10.90;;;6.93;;
6019;SDS011;3038;51.122;6.840;2023-03-04T02:51:58;20.90;;;7.27;;
6019;SDS011;3038;51.122;6.840;2023-03-04T02:54:25;9.80;;;6.67;;
6019;SDS011;3038;51.122;6.840;2023-03-04T02:56:52;13.07;;;7.13;;
6019;SDS011;3038;51.122;6.840;2023-03-04T02:59:20;9.00;;;6.53;;
6019;SDS011;3038;51.122;6.840;2023-03-04T03:01:46;15.13;;;6.20;;
6019;SDS011;3038;51.122;6.840;2023-03-04T03:04:12;16.83;;;6.00;;
6019;SDS011;3038;51.122;6.840;2023-03-04T03:06:38;9.70;;;5.90;;
6019;SDS011;3038;51.122;6.840;2023-03-04T03:09:04;12.80;;;6.17;;
6019;SDS011;3038;51.122;6.840;2023-03-04T03:11:29;11.33;;;6.43;;
6019;SDS011;3038;51.122;6.840;2023-03-04T03:13:55;14.47;;;6.37;;
6019;SDS011;3038;51.122;6.840;2023-03-04T03:16:20;13.83;;;6.10;;
6019;SDS011;3038;51.122;6.840;2023-03-04T03:18:45;13.17;;;5.50;;
6019;SDS011;3038;51.122;6.840;2023-03-04T03:21:11;8.13;;;4.53;;
6019;SDS011;3038;51.122;6.840;2023-03-04T03:23:36;11.93;;;5.30;;
6019;SDS011;3038;51.122;6.840;2023-03-04T03:26:01;13.40;;;5.93;;
6019;SDS011;3038;51.122;6.840;2023-03-04T03:28:28;17.93;;;6.93;;
6019;SDS011;3038;51.122;6.840;2023-03-04T03:30:54;21.30;;;6.87;;
6019;SDS011;3038;51.122;6.840;2023-03-04T03:33:19;17.20;;;6.50;;
6019;SDS011;3038;51.122;6.840;2023-03-04T03:35:44;19.87;;;7.53;;
6019;SDS011;3038;51.122;6.840;2023-03-04T03:38:10;15.53;;;7.17;;
6019;SDS011;3038;51.122;6.840;2023-03-04T03:40:35;17.43;;;7.63;;
6019;SDS011;3038;51.122;6.840;2023-03-04T03:43:01;14.13;;;6.77;;
6019;SDS011;3038;51.122;6.840;2023-03-04T03:45:26;11.57;;;7.70;;
6019;SDS011;3038;51.122;6.840;2023-03-04T03:47:51;14.80;;;8.23;;
6019;SDS011;3038;51.122;6.840;2023-03-04T03:50:17;18.17;;;8.70;;
6019;SDS011;3038;51.122;6.840;2023-03-04T03:52:42;18.10;;;7.33;;
6019;SDS011;3038;51.122;6.840;2023-03-04T03:55:08;16.87;;;8.37;;
6019;SDS011;3038;51.122;6.840;2023-03-04T03:57:33;16.00;;;7.80;;
6019;SDS011;3038;51.122;6.840;2023-03-04T03:59:59;19.70;;;8.10;;
6019;SDS011;3038;51.122;6.840;2023-03-04T04:02:25;13.60;;;6.63;;
6019;SDS011;3038;51.122;6.840;2023-03-04T04:04:50;17.07;;;6.23;;
6019;SDS011;3038;51.122;6.840;2023-03-04T04:07:16;21.10;;;10.70;;
6019;SDS011;3038;51.122;6.840;2023-03-04T04:09:41;22.03;;;13.17;;
6019;SDS011;3038;51.122;6.840;2023-03-04T04:12:06;24.77;;;13.80;;
6019;SDS011;3038;51.122;6.840;2023-03-04T04:14:32;24.33;;;11.73;;
6019;SDS011;3038;51.122;6.840;2023-03-04T04:16:57;24.17;;;11.00;;
6019;SDS011;3038;51.122;6.840;2023-03-04T04:19:23;21.90;;;11.17;;
6019;SDS011;3038;51.122;6.840;2023-03-04T04:21:48;19.30;;;10.23;;
6019;SDS011;3038;51.122;6.840;2023-03-04T04:24:14;17.30;;;8.80;;
6019;SDS011;3038;51.122;6.840;2023-03-04T04:26:40;20.90;;;9.50;;
6019;SDS011;3038;51.122;6.840;2023-03-04T04:29:05;17.67;;;10.57;;
6019;SDS011;3038;51.122;6.840;2023-03-04T04:31:31;26.30;;;11.57;;
6019;SDS011;3038;51.122;6.840;2023-03-04T04:33:56;21.90;;;11.87;;
6019;SDS011;3038;51.122;6.840;2023-03-04T04:36:22;24.77;;;11.40;;
6019;SDS011;3038;51.122;6.840;2023-03-04T04:38:47;16.30;;;9.50;;
6019;SDS011;3038;51.122;6.840;2023-03-04T04:41:24;21.23;;;10.90;;
6019;SDS011;3038;51.122;6.840;2023-03-04T04:43:52;19.73;;;9.47;;
6019;SDS011;3038;51.122;6.840;2023-03-04T04:46:18;16.90;;;9.07;;
6019;SDS011;3038;51.122;6.840;2023-03-04T04:48:44;19.53;;;10.10;;
6019;SDS011;3038;51.122;6.840;2023-03-04T04:51:09;19.10;;;9.73;;
6019;SDS011;3038;51.122;6.840;2023-03-04T04:53:35;18.67;;;8.80;;
6019;SDS011;3038;51.122;6.840;2023-03-04T04:56:07;22.23;;;8.50;;
6019;SDS011;3038;51.122;6.840;2023-03-04T04:58:43;15.13;;;9.33;;
6019;SDS011;3038;51.122;6.840;2023-03-04T05:01:09;18.77;;;8.30;;
6019;SDS011;3038;51.122;6.840;2023-03-04T05:03:35;16.60;;;7.40;;
6019;SDS011;3038;51.122;6.840;2023-03-04T05:06:01;16.30;;;6.47;;
6019;SDS011;3038;51.122;6.840;2023-03-04T05:08:28;16.40;;;6.70;;
6019;SDS011;3038;51.122;6.840;2023-03-04T05:10:53;16.83;;;8.40;;
6019;SDS011;3038;51.122;6.840;2023-03-04T05:13:19;17.10;;;7.90;;
6019;SDS011;3038;51.122;6.840;2023-03-04T05:15:45;7.53;;;4.80;;
6019;SDS011;3038;51.122;6.840;2023-03-04T05:18:11;8.90;;;5.00;;
6019;SDS011;3038;51.122;6.840;2023-03-04T05:20:36;15.90;;;6.13;;
6019;SDS011;3038;51.122;6.840;2023-03-04T05:23:02;15.43;;;5.37;;
6019;SDS011;3038;51.122;6.840;2023-03-04T05:25:27;10.93;;;4.80;;
6019;SDS011;3038;51.122;6.840;2023-03-04T05:27:53;13.07;;;5.30;;
6019;SDS011;3038;51.122;6.840;2023-03-04T05:30:18;9.90;;;5.47;;
6019;SDS011;3038;51.122;6.840;2023-03-04T05:32:44;12.93;;;5.47;;
6019;SDS011;3038;51.122;6.840;2023-03-04T05:35:09;13.03;;;4.40;;
6019;SDS011;3038;51.122;6.840;2023-03-04T05:37:34;13.60;;;4.80;;
6019;SDS011;3038;51.122;6.840;2023-03-04T05:40:00;9.47;;;4.67;;
6019;SDS011;3038;51.122;6.840;2023-03-04T05:42:25;8.23;;;4.23;;
6019;SDS011;3038;51.122;6.840;2023-03-04T05:44:51;9.63;;;5.00;;
6019;SDS011;3038;51.122;6.840;2023-03-04T05:47:16;11.90;;;4.20;;
6019;SDS011;3038;51.122;6.840;2023-03-04T05:49:42;12.33;;;5.30;;
6019;SDS011;3038;51.122;6.840;2023-03-04T05:52:08;13.63;;;5.43;;
6019;SDS011;3038;51.122;6.840;2023-03-04T05:54:34;14.53;;;5.20;;
6019;SDS011;3038;51.122;6.840;2023-03-04T05:56:59;9.83;;;5.10;;
6019;SDS011;3038;51.122;6.840;2023-03-04T05:59:25;7.70;;;4.30;;
6019;SDS011;3038;51.122;6.840;2023-03-04T06:01:50;11.17;;;5.57;;
6019;SDS011;3038;51.122;6.840;2023-03-04T06:04:15;7.97;;;4.40;;
6019;SDS011;3038;51.122;6.840;2023-03-04T06:06:41;11.30;;;5.73;;
6019;SDS011;3038;51.122;6.840;2023-03-04T06:09:06;12.60;;;6.00;;
6019;SDS011;3038;51.122;6.840;2023-03-04T06:11:31;12.00;;;6.47;;
6019;SDS011;3038;51.122;6.840;2023-03-04T06:13:57;10.00;;;6.67;;
6019;SDS011;3038;51.122;6.840;2023-03-04T06:16:22;15.87;;;7.60;;
6019;SDS011;3038;51.122;6.840;2023-03-04T06:18:47;10.50;;;6.20;;
6019;SDS011;3038;51.122;6.840;2023-03-04T06:21:13;14.33;;;5.87;;
6019;SDS011;3038;51.122;6.840;2023-03-04T06:23:38;10.47;;;5.00;;
6019;SDS011;3038;51.122;6.840;2023-03-04T06:26:04;11.50;;;4.63;;
6019;SDS011;3038;51.122;6.840;2023-03-04T06:28:33;13.13;;;5.23;;
6019;SDS011;3038;51.122;6.840;2023-03-04T06:30:58;10.20;;;4.20;;
6019;SDS011;3038;51.122;6.840;2023-03-04T06:33:24;9.80;;;3.90;;
6019;SDS011;3038;51.122;6.840;2023-03-04T06:35:52;18.10;;;4.90;;
6019;SDS011;3038;51.122;6.840;2023-03-04T06:38:19;10.57;;;4.00;;
6019;SDS011;3038;51.122;6.840;2023-03-04T06:40:45;7.33;;;3.43;;
6019;SDS011;3038;51.122;6.840;2023-03-04T06:43:10;9.33;;;4.13;;
6019;SDS011;3038;51.122;6.840;2023-03-04T06:45:37;9.53;;;4.23;;
6019;SDS011;3038;51.122;6.840;2023-03-04T06:48:03;13.43;;;5.10;;
6019;SDS011;3038;51.122;6.840;2023-03-04T06:50:29;8.30;;;5.73;;
6019;SDS011;3038;51.122;6.840;2023-03-04T06:52:57;15.37;;;5.90;;
6019;SDS011;3038;51.122;6.840;2023-03-04T06:55:23;14.50;;;6.73;;
6019;SDS011;3038;51.122;6.840;2023-03-04T06:57:48;12.70;;;5.60;;
6019;SDS011;3038;51.122;6.840;2023-03-04T07:00:14;12.20;;;4.80;;
6019;SDS011;3038;51.122;6.840;2023-03-04T07:02:39;11.70;;;4.83;;
6019;SDS011;3038;51.122;6.840;2023-03-04T07:05:06;9.13;;;4.00;;
6019;SDS011;3038;51.122;6.840;2023-03-04T07:07:31;26.03;;;6.97;;
6019;SDS011;3038;51.122;6.840;2023-03-04T07:09:57;16.00;;;4.70;;
6019;SDS011;3038;51.122;6.840;2023-03-04T07:12:22;10.97;;;3.50;;
6019;SDS011;3038;51.122;6.840;2023-03-04T07:14:48;7.77;;;3.80;;
6019;SDS011;3038;51.122;6.840;2023-03-04T07:17:13;12.10;;;3.83;;
6019;SDS011;3038;51.122;6.840;2023-03-04T07:19:38;10.87;;;4.17;;
6019;SDS011;3038;51.122;6.840;2023-03-04T07:22:04;5.57;;;3.40;;
6019;SDS011;3038;51.122;6.840;2023-03-04T07:24:30;15.47;;;5.43;;
6019;SDS011;3038;51.122;6.840;2023-03-04T07:26:55;11.30;;;5.63;;
6019;SDS011;3038;51.122;6.840;2023-03-04T07:29:20;8.17;;;4.60;;
6019;SDS011;3038;51.122;6.840;2023-03-04T07:31:46;10.43;;;4.30;;
6019;SDS011;3038;51.122;6.840;2023-03-04T07:34:11;7.20;;;4.87;;
6019;SDS011;3038;51.122;6.840;2023-03-04T07:36:38;13.63;;;3.23;;
6019;SDS011;3038;51.122;6.840;2023-03-04T07:39:04;7.17;;;3.60;;
6019;SDS011;3038;51.122;6.840;2023-03-04T07:41:30;7.50;;;3.13;;
6019;SDS011;3038;51.122;6.840;2023-03-04T07:43:56;8.07;;;3.50;;
6019;SDS011;3038;51.122;6.840;2023-03-04T07:46:22;10.93;;;3.57;;
6019;SDS011;3038;51.122;6.840;2023-03-04T07:48:48;10.03;;;4.77;;
6019;SDS011;3038;51.122;6.840;2023-03-04T07:51:15;11.27;;;4.30;;
6019;SDS011;3038;51.122;6.840;2023-03-04T07:53:42;11.77;;;3.30;;
6019;SDS011;3038;51.122;6.840;2023-03-04T07:56:13;6.30;;;2.80;;
6019;SDS011;3038;51.122;6.840;2023-03-04T07:58:41;10.87;;;2.97;;
6019;SDS011;3038;51.122;6.840;2023-03-04T08:01:13;7.50;;;4.30;;
6019;SDS011;3038;51.122;6.840;2023-03-04T08:03:41;8.40;;;4.10;;
6019;SDS011;3038;51.122;6.840;2023-03-04T08:06:07;7.97;;;3.40;;
6019;SDS011;3038;51.122;6.840;2023-03-04T08:08:33;11.60;;;3.50;;
6019;SDS011;3038;51.122;6.840;2023-03-04T08:10:59;8.70;;;3.10;;
6019;SDS011;3038;51.122;6.840;2023-03-04T08:13:25;11.23;;;3.90;;
6019;SDS011;3038;51.122;6.840;2023-03-04T08:15:50;7.77;;;3.37;;
6019;SDS011;3038;51.122;6.840;2023-03-04T08:18:15;7.73;;;4.70;;
6019;SDS011;3038;51.122;6.840;2023-03-04T08:20:41;8.50;;;3.33;;
6019;SDS011;3038;51.122;6.840;2023-03-04T08:23:07;8.90;;;3.10;;
6019;SDS011;3038;51.122;6.840;2023-03-04T08:25:36;7.67;;;2.87;;
6019;SDS011;3038;51.122;6.840;2023-03-04T08:28:03;9.73;;;3.27;;
6019;SDS011;3038;51.122;6.840;2023-03-04T08:30:28;10.13;;;3.53;;
6019;SDS011;3038;51.122;6.840;2023-03-04T08:32:53;7.30;;;3.00;;
6019;SDS011;3038;51.122;6.840;2023-03-04T08:35:19;7.00;;;3.43;;
6019;SDS011;3038;51.122;6.840;2023-03-04T08:37:44;6.60;;;2.90;;
6019;SDS011;3038;51.122;6.840;2023-03-04T08:40:10;17.23;;;3.77;;
6019;SDS011;3038;51.122;6.840;2023-03-04T08:42:36;5.43;;;2.83;;
6019;SDS011;3038;51.122;6.840;2023-03-04T08:45:01;7.40;;;3.00;;
6019;SDS011;3038;51.122;6.840;2023-03-04T08:47:27;6.93;;;2.20;;
6019;SDS011;3038;51.122;6.840;2023-03-04T08:49:52;6.53;;;2.30;;
6019;SDS011;3038;51.122;6.840;2023-03-04T08:52:17;7.60;;;2.40;;
6019;SDS011;3038;51.122;6.840;2023-03-04T08:54:43;5.13;;;2.27;;
6019;SDS011;3038;51.122;6.840;2023-03-04T08:57:08;8.33;;;2.60;;
6019;SDS011;3038;51.122;6.840;2023-03-04T08:59:33;6.50;;;3.00;;
6019;SDS011;3038;51.122;6.840;2023-03-04T09:01:59;10.33;;;3.13;;
6019;SDS011;3038;51.122;6.840;2023-03-04T09:04:24;6.97;;;3.10;;
6019;SDS011;3038;51.122;6.840;2023-03-04T09:06:49;5.97;;;3.67;;
6019;SDS011;3038;51.122;6.840;2023-03-04T09:09:15;9.60;;;4.40;;
6019;SDS011;3038;51.122;6.840;2023-03-04T09:11:40;10.63;;;4.17;;
6019;SDS011;3038;51.122;6.840;2023-03-04T09:14:05;8.87;;;2.87;;
6019;SDS011;3038;51.122;6.840;2023-03-04T09:16:31;6.93;;;2.87;;
6019;SDS011;3038;51.122;6.840;2023-03-04T09:18:56;6.47;;;2.60;;
6019;SDS011;3038;51.122;6.840;2023-03-04T09:21:21;11.03;;;2.90;;
6019;SDS011;3038;51.122;6.840;2023-03-04T09:23:47;5.50;;;2.87;;
6019;SDS011;3038;51.122;6.840;2023-03-04T09:26:17;8.13;;;3.67;;
6019;SDS011;3038;51.122;6.840;2023-03-04T09:28:55;9.07;;;3.60;;
6019;SDS011;3038;51.122;6.840;2023-03-04T09:31:22;8.93;;;3.30;;
6019;SDS011;3038;51.122;6.840;2023-03-04T09:33:48;9.47;;;3.63;;
6019;SDS011;3038;51.122;6.840;2023-03-04T09:36:15;5.00;;;3.13;;
6019;SDS011;3038;51.122;6.840;2023-03-04T09:38:40;6.87;;;3.30;;
6019;SDS011;3038;51.122;6.840;2023-03-04T09:41:08;5.87;;;3.90;;
6019;SDS011;3038;51.122;6.840;2023-03-04T09:43:38;10.37;;;3.07;;
6019;SDS011;3038;51.122;6.840;2023-03-04T09:46:05;7.10;;;3.13;;
6019;SDS011;3038;51.122;6.840;2023-03-04T09:48:38;7.80;;;3.10;;
6019;SDS011;3038;51.122;6.840;2023-03-04T09:56:33;6.53;;;3.60;;
6019;SDS011;3038;51.122;6.840;2023-03-04T09:59:04;6.07;;;3.17;;
6019;SDS011;3038;51.122;6.840;2023-03-04T10:01:48;5.87;;;3.00;;
6019;SDS011;3038;51.122;6.840;2023-03-04T10:04:33;5.53;;;2.90;;
6019;SDS011;3038;51.122;6.840;2023-03-04T10:07:04;8.67;;;2.93;;
6019;SDS011;3038;51.122;6.840;2023-03-04T10:09:48;7.47;;;3.40;;
6019;SDS011;3038;51.122;6.840;2023-03-04T10:12:19;6.70;;;3.17;;
6019;SDS011;3038;51.122;6.840;2023-03-04T10:14:49;9.27;;;3.10;;
6019;SDS011;3038;51.122;6.840;2023-03-04T10:17:20;6.40;;;2.80;;
6019;SDS011;3038;51.122;6.840;2023-03-04T10:22:45;6.17;;;2.70;;
6019;SDS011;3038;51.122;6.840;2023-03-04T10:25:26;6.23;;;3.00;;
6019;SDS011;3038;51.122;6.840;2023-03-04T10:27:55;7.70;;;2.50;;
6019;SDS011;3038;51.122;6.840;2023-03-04T10:33:14;5.00;;;2.40;;
6019;SDS011;3038;51.122;6.840;2023-03-04T10:35:43;3.67;;;2.10;;
6019;SDS011;3038;51.122;6.840;2023-03-04T10:38:12;4.30;;;1.87;;
6019;SDS011;3038;51.122;6.840;2023-03-04T10:40:40;6.23;;;2.17;;
6019;SDS011;3038;51.122;6.840;2023-03-04T10:43:13;5.57;;;2.97;;
6019;SDS011;3038;51.122;6.840;2023-03-04T10:45:42;4.13;;;2.53;;
6019;SDS011;3038;51.122;6.840;2023-03-04T10:48:19;4.93;;;2.27;;
6019;SDS011;3038;51.122;6.840;2023-03-04T10:50:47;11.33;;;2.90;;
6019;SDS011;3038;51.122;6.840;2023-03-04T10:53:29;5.00;;;2.40;;
6019;SDS011;3038;51.122;6.840;2023-03-04T10:56:02;3.80;;;2.50;;
6019;SDS011;3038;51.122;6.840;2023-03-04T10:58:28;4.07;;;2.40;;
6019;SDS011;3038;51.122;6.840;2023-03-04T11:00:58;4.03;;;2.07;;
6019;SDS011;3038;51.122;6.840;2023-03-04T11:05:51;3.77;;;2.53;;
6019;SDS011;3038;51.122;6.840;2023-03-04T11:08:28;4.53;;;2.13;;
6019;SDS011;3038;51.122;6.840;2023-03-04T11:10:54;3.43;;;2.07;;
6019;SDS011;3038;51.122;6.840;2023-03-04T11:13:20;3.63;;;2.03;;
6019;SDS011;3038;51.122;6.840;2023-03-04T11:18:18;5.87;;;2.30;;
6019;SDS011;3038;51.122;6.840;2023-03-04T11:21:05;4.60;;;2.30;;
6019;SDS011;3038;51.122;6.840;2023-03-04T11:23:37;6.23;;;2.27;;
6019;SDS011;3038;51.122;6.840;2023-03-04T11:26:08;4.70;;;1.53;;
6019;SDS011;3038;51.122;6.840;2023-03-04T11:28:41;3.80;;;1.77;;
6019;SDS011;3038;51.122;6.840;2023-03-04T11:31:19;2.60;;;1.90;;
6019;SDS011;3038;51.122;6.840;2023-03-04T11:39:25;3.77;;;2.20;;
6019;SDS011;3038;51.122;6.840;2023-03-04T11:41:55;7.53;;;2.57;;
6019;SDS011;3038;51.122;6.840;2023-03-04T11:44:24;6.07;;;2.00;;
6019;SDS011;3038;51.122;6.840;2023-03-04T11:46:52;3.90;;;2.37;;
6019;SDS011;3038;51.122;6.840;2023-03-04T12:00:47;3.17;;;1.53;;
6019;SDS011;3038;51.122;6.840;2023-03-04T12:06:34;3.03;;;2.00;;
6019;SDS011;3038;51.122;6.840;2023-03-04T12:09:08;2.77;;;1.90;;
6019;SDS011;3038;51.122;6.840;2023-03-04T12:20:07;2.90;;;1.87;;
6019;SDS011;3038;51.122;6.840;2023-03-04T12:22:46;6.93;;;2.50;;
6019;SDS011;3038;51.122;6.840;2023-03-04T12:25:34;3.53;;;1.67;;
6019;SDS011;3038;51.122;6.840;2023-03-04T12:31:18;5.17;;;1.63;;
6019;SDS011;3038;51.122;6.840;2023-03-04T12:37:10;2.33;;;1.90;;
6019;SDS011;3038;51.122;6.840;2023-03-04T12:39:50;3.30;;;2.23;;
6019;SDS011;3038;51.122;6.840;2023-03-04T12:42:33;3.20;;;2.07;;
6019;SDS011;3038;51.122;6.840;2023-03-04T12:45:12;2.80;;;1.83;;
6019;SDS011;3038;51.122;6.840;2023-03-04T12:50:41;2.80;;;2.00;;
6019;SDS011;3038;51.122;6.840;2023-03-04T12:53:26;2.07;;;1.70;;
6019;SDS011;3038;51.122;6.840;2023-03-04T12:55:57;2.80;;;1.70;;
6019;SDS011;3038;51.122;6.840;2023-03-04T12:58:27;4.97;;;2.07;;
6019;SDS011;3038;51.122;6.840;2023-03-04T13:01:17;6.00;;;1.70;;
6019;SDS011;3038;51.122;6.840;2023-03-04T13:03:52;1.37;;;1.23;;
6019;SDS011;3038;51.122;6.840;2023-03-04T13:06:27;2.60;;;1.87;;
6019;SDS011;3038;51.122;6.840;2023-03-04T13:09:09;2.33;;;1.63;;
6019;SDS011;3038;51.122;6.840;2023-03-04T13:11:44;1.60;;;1.40;;
6019;SDS011;3038;51.122;6.840;2023-03-04T13:16:46;3.07;;;1.90;;
6019;SDS011;3038;51.122;6.840;2023-03-04T13:22:28;2.23;;;1.70;;
6019;SDS011;3038;51.122;6.840;2023-03-04T13:27:50;3.53;;;1.67;;
6019;SDS011;3038;51.122;6.840;2023-03-04T13:43:36;3.87;;;1.97;;
6019;SDS011;3038;51.122;6.840;2023-03-04T13:51:24;2.70;;;2.20;;
6019;SDS011;3038;51.122;6.840;2023-03-04T14:01:47;2.57;;;2.17;;
6019;SDS011;3038;51.122;6.840;2023-03-04T14:04:20;4.13;;;2.80;;
6019;SDS011;3038;51.122;6.840;2023-03-04T14:06:50;3.43;;;2.33;;
6019;SDS011;3038;51.122;6.840;2023-03-04T14:09:20;3.63;;;2.50;;
6019;SDS011;3038;51.122;6.840;2023-03-04T14:11:51;4.00;;;2.47;;
6019;SDS011;3038;51.122;6.840;2023-03-04T14:14:21;3.73;;;2.70;;
6019;SDS011;3038;51.122;6.840;2023-03-04T14:17:01;4.77;;;1.80;;
6019;SDS011;3038;51.122;6.840;2023-03-04T14:19:35;2.57;;;1.77;;
6019;SDS011;3038;51.122;6.840;2023-03-04T14:22:24;1.70;;;1.60;;
6019;SDS011;3038;51.122;6.840;2023-03-04T14:25:05;2.10;;;1.90;;
6019;SDS011;3038;51.122;6.840;2023-03-04T14:27:46;5.57;;;2.00;;
6019;SDS011;3038;51.122;6.840;2023-03-04T14:32:45;2.00;;;1.80;;
6019;SDS011;3038;51.122;6.840;2023-03-04T14:35:17;3.03;;;1.70;;
6019;SDS011;3038;51.122;6.840;2023-03-04T14:37:49;2.57;;;2.10;;
6019;SDS011;3038;51.122;6.840;2023-03-04T14:40:23;2.50;;;2.00;;
6019;SDS011;3038;51.122;6.840;2023-03-04T14:42:55;3.40;;;2.60;;
6019;SDS011;3038;51.122;6.840;2023-03-04T14:45:42;3.60;;;2.40;;
6019;SDS011;3038;51.122;6.840;2023-03-04T14:48:10;3.40;;;2.53;;
6019;SDS011;3038;51.122;6.840;2023-03-04T14:50:49;4.80;;;2.57;;
6019;SDS011;3038;51.122;6.840;2023-03-04T14:53:17;3.43;;;2.43;;
6019;SDS011;3038;51.122;6.840;2023-03-04T14:55:57;3.93;;;2.57;;
6019;SDS011;3038;51.122;6.840;2023-03-04T14:58:34;3.00;;;2.50;;
6019;SDS011;3038;51.122;6.840;2023-03-04T15:03:32;2.90;;;2.60;;
6019;SDS011;3038;51.122;6.840;2023-03-04T15:06:17;2.50;;;2.30;;
6019;SDS011;3038;51.122;6.840;2023-03-04T15:11:32;6.43;;;2.83;;
6019;SDS011;3038;51.122;6.840;2023-03-04T15:14:15;4.03;;;3.47;;
6019;SDS011;3038;51.122;6.840;2023-03-04T15:17:18;4.37;;;3.77;;
6019;SDS011;3038;51.122;6.840;2023-03-04T15:25:12;4.30;;;3.07;;
6019;SDS011;3038;51.122;6.840;2023-03-04T15:27:39;3.87;;;3.53;;
6019;SDS011;3038;51.122;6.840;2023-03-04T15:30:05;3.23;;;2.93;;
6019;SDS011;3038;51.122;6.840;2023-03-04T15:32:34;4.80;;;2.53;;
6019;SDS011;3038;51.122;6.840;2023-03-04T15:34:59;4.40;;;3.13;;
6019;SDS011;3038;51.122;6.840;2023-03-04T15:37:26;6.93;;;3.20;;
6019;SDS011;3038;51.122;6.840;2023-03-04T15:39:54;3.63;;;3.23;;
6019;SDS011;3038;51.122;6.840;2023-03-04T15:42:21;3.03;;;2.77;;
6019;SDS011;3038;51.122;6.840;2023-03-04T15:44:47;8.70;;;3.40;;
6019;SDS011;3038;51.122;6.840;2023-03-04T15:47:13;9.20;;;2.90;;
6019;SDS011;3038;51.122;6.840;2023-03-04T15:49:39;4.93;;;2.77;;
6019;SDS011;3038;51.122;6.840;2023-03-04T15:52:05;3.00;;;2.67;;
6019;SDS011;3038;51.122;6.840;2023-03-04T15:54:35;3.33;;;2.70;;
6019;SDS011;3038;51.122;6.840;2023-03-04T15:57:01;3.87;;;3.10;;
6019;SDS011;3038;51.122;6.840;2023-03-04T15:59:32;3.80;;;2.90;;
6019;SDS011;3038;51.122;6.840;2023-03-04T16:01:57;5.70;;;3.33;;
6019;SDS011;3038;51.122;6.840;2023-03-04T16:04:23;4.20;;;2.77;;
6019;SDS011;3038;51.122;6.840;2023-03-04T16:06:48;5.33;;;3.30;;
6019;SDS011;3038;51.122;6.840;2023-03-04T16:09:15;4.97;;;3.67;;
6019;SDS011;3038;51.122;6.840;2023-03-04T16:11:43;12.30;;;4.33;;
6019;SDS011;3038;51.122;6.840;2023-03-04T16:14:11;5.50;;;3.80;;
6019;SDS011;3038;51.122;6.840;2023-03-04T16:16:39;3.67;;;3.33;;
6019;SDS011;3038;51.122;6.840;2023-03-04T16:19:05;3.57;;;3.10;;
6019;SDS011;3038;51.122;6.840;2023-03-04T16:21:30;4.73;;;3.67;;
6019;SDS011;3038;51.122;6.840;2023-03-04T16:23:56;5.40;;;4.10;;
6019;SDS011;3038;51.122;6.840;2023-03-04T16:26:23;4.40;;;4.00;;
6019;SDS011;3038;51.122;6.840;2023-03-04T16:28:49;4.60;;;3.53;;
6019;SDS011;3038;51.122;6.840;2023-03-04T16:31:16;4.27;;;3.50;;
6019;SDS011;3038;51.122;6.840;2023-03-04T16:33:46;7.57;;;4.23;;
6019;SDS011;3038;51.122;6.840;2023-03-04T16:38:43;5.00;;;3.73;;
6019;SDS011;3038;51.122;6.840;2023-03-04T16:41:12;4.17;;;3.77;;
6019;SDS011;3038;51.122;6.840;2023-03-04T16:43:40;3.50;;;3.20;;
6019;SDS011;3038;51.122;6.840;2023-03-04T16:46:07;10.20;;;6.40;;
6019;SDS011;3038;51.122;6.840;2023-03-04T16:48:32;12.40;;;8.57;;
6019;SDS011;3038;51.122;6.840;2023-03-04T16:51:01;12.70;;;7.60;;
6019;SDS011;3038;51.122;6.840;2023-03-04T16:53:32;10.47;;;8.57;;
6019;SDS011;3038;51.122;6.840;2023-03-04T16:56:14;14.80;;;8.00;;
6019;SDS011;3038;51.122;6.840;2023-03-04T16:58:41;10.43;;;7.23;;
6019;SDS011;3038;51.122;6.840;2023-03-04T17:01:17;12.97;;;5.43;;
6019;SDS011;3038;51.122;6.840;2023-03-04T17:03:45;8.20;;;5.20;;
6019;SDS011;3038;51.122;6.840;2023-03-04T17:06:11;9.07;;;4.30;;